createdAt,value
2023-04-19T00:01:59.855Z,57.03
2023-04-19T00:04:34.031Z,57.04
2023-04-19T00:07:06.664Z,57.14
2023-04-19T00:09:39.158Z,57.19
2023-04-19T00:12:11.364Z,57.10
2023-04-19T00:14:43.688Z,57.04
2023-04-19T00:17:16.057Z,57.15
2023-04-19T00:19:48.501Z,57.08
2023-04-19T00:22:20.837Z,57.14
2023-04-19T00:24:53.205Z,57.24
2023-04-19T00:27:25.462Z,57.27
2023-04-19T00:29:57.958Z,57.20
2023-04-19T00:32:30.334Z,57.27
2023-04-19T00:35:02.602Z,57.05
2023-04-19T00:37:34.914Z,57.30
2023-04-19T00:40:09.338Z,57.04
2023-04-19T00:42:41.589Z,57.13
2023-04-19T00:45:14.553Z,57.05
2023-04-19T00:47:47.173Z,57.14
2023-04-19T00:50:19.872Z,57.20
2023-04-19T00:52:53.109Z,57.01
2023-04-19T00:55:25.934Z,57.19
2023-04-19T00:57:58.685Z,57.15
2023-04-19T01:00:31.256Z,57.20
2023-04-19T01:03:03.957Z,57.30
2023-04-19T01:05:36.764Z,57.29
2023-04-19T01:08:09.510Z,57.23
2023-04-19T01:10:41.893Z,57.28
2023-04-19T01:13:14.117Z,57.31
2023-04-19T01:15:46.964Z,57.22
2023-04-19T01:18:19.481Z,57.24
2023-04-19T01:20:51.886Z,57.31
2023-04-19T01:23:24.250Z,57.30
2023-04-19T01:25:56.556Z,57.18
2023-04-19T01:28:28.984Z,57.07
2023-04-19T01:31:01.319Z,57.20
2023-04-19T01:33:33.671Z,57.11
2023-04-19T01:36:06.465Z,57.22
2023-04-19T01:38:38.746Z,57.43
2023-04-19T01:41:11.125Z,57.38
2023-04-19T01:43:43.557Z,57.33
2023-04-19T01:46:15.922Z,57.38
2023-04-19T01:48:48.318Z,57.55
2023-04-19T01:51:21.976Z,57.59
2023-04-19T01:53:54.890Z,57.52
2023-04-19T01:56:27.433Z,57.46
2023-04-19T01:59:00.045Z,57.54
2023-04-19T02:01:32.576Z,57.48
2023-04-19T02:04:05.127Z,57.42
2023-04-19T02:06:37.633Z,57.48
2023-04-19T02:09:10.083Z,57.62
2023-04-19T02:11:42.371Z,57.65
2023-04-19T02:14:14.971Z,57.72
2023-04-19T02:16:47.777Z,57.70
2023-04-19T02:19:21.759Z,57.73
2023-04-19T02:21:57.832Z,57.60
2023-04-19T02:24:30.090Z,57.72
2023-04-19T02:27:02.482Z,57.72
2023-04-19T02:29:35.268Z,57.71
2023-04-19T02:32:07.991Z,57.78
2023-04-19T02:34:40.420Z,57.71
2023-04-19T02:37:12.859Z,57.80
2023-04-19T02:39:46.061Z,57.74
2023-04-19T02:42:18.354Z,57.69
2023-04-19T02:44:50.533Z,57.79
2023-04-19T02:47:23.075Z,57.83
2023-04-19T02:49:55.654Z,57.90
2023-04-19T02:52:29.196Z,57.97
2023-04-19T02:55:01.605Z,58.04
2023-04-19T02:57:33.978Z,58.02
2023-04-19T03:00:08.966Z,58.02
2023-04-19T03:02:41.446Z,58.06
2023-04-19T03:05:14.646Z,58.08
2023-04-19T03:07:46.930Z,58.07
2023-04-19T03:10:19.362Z,58.08
2023-04-19T03:12:51.867Z,58.11
2023-04-19T03:15:24.228Z,58.13
2023-04-19T03:17:56.582Z,58.10
2023-04-19T03:20:28.936Z,58.12
2023-04-19T03:23:01.294Z,58.13
2023-04-19T03:25:33.961Z,58.14
2023-04-19T03:28:06.555Z,58.20
2023-04-19T03:30:38.866Z,58.23
2023-04-19T03:33:11.287Z,58.53
2023-04-19T03:35:44.826Z,58.42
2023-04-19T03:38:17.143Z,58.52
2023-04-19T03:40:49.556Z,58.54
2023-04-19T03:43:22.304Z,58.70
2023-04-19T03:45:54.684Z,58.70
2023-04-19T03:48:28.164Z,58.62
2023-04-19T03:51:00.511Z,58.76
2023-04-19T03:53:32.823Z,58.73
2023-04-19T03:56:05.496Z,58.80
2023-04-19T03:58:39.703Z,58.84
2023-04-19T04:01:20.851Z,58.85
2023-04-19T04:03:53.673Z,58.93
2023-04-19T04:06:26.967Z,59.00
2023-04-19T04:08:59.348Z,59.10
2023-04-19T04:11:31.651Z,59.03
2023-04-19T04:14:03.987Z,59.00
2023-04-19T04:16:36.358Z,59.16
2023-04-19T04:19:08.759Z,59.16
2023-04-19T04:21:41.065Z,59.17
2023-04-19T04:24:13.542Z,59.24
2023-04-19T04:26:46.040Z,59.17
2023-04-19T04:29:18.517Z,59.07
2023-04-19T04:31:51.047Z,59.32
2023-04-19T04:34:23.392Z,59.21
2023-04-19T04:36:55.950Z,59.05
2023-04-19T04:39:28.312Z,59.20
2023-04-19T04:42:00.715Z,59.15
2023-04-19T04:44:34.299Z,59.12
2023-04-19T04:47:07.324Z,59.22
2023-04-19T04:49:39.672Z,59.10
2023-04-19T04:52:11.988Z,59.21
2023-04-19T04:54:44.331Z,59.18
2023-04-19T04:57:16.801Z,59.17
2023-04-19T04:59:49.267Z,59.23
2023-04-19T05:02:22.730Z,59.29
2023-04-19T05:04:55.235Z,59.18
2023-04-19T05:07:27.679Z,59.25
2023-04-19T05:09:59.917Z,59.26
2023-04-19T05:12:32.407Z,59.32
2023-04-19T05:15:04.968Z,59.40
2023-04-19T05:17:37.728Z,59.55
2023-04-19T05:20:12.273Z,59.75
2023-04-19T05:22:44.589Z,59.79
2023-04-19T05:25:17.047Z,59.86
2023-04-19T05:27:49.488Z,59.89
2023-04-19T05:30:22.260Z,60.12
2023-04-19T05:32:54.792Z,60.23
2023-04-19T05:35:27.241Z,60.30
2023-04-19T05:37:59.739Z,60.37
2023-04-19T05:40:32.319Z,60.53
2023-04-19T05:43:04.616Z,60.43
2023-04-19T05:45:37.077Z,60.44
2023-04-19T05:48:09.904Z,60.42
2023-04-19T05:50:42.652Z,60.51
2023-04-19T05:53:15.124Z,60.56
2023-04-19T05:55:48.244Z,60.75
2023-04-19T05:58:23.827Z,60.64
2023-04-19T06:00:58.571Z,60.44
2023-04-19T06:03:32.377Z,60.56
2023-04-19T06:06:05.099Z,60.55
2023-04-19T06:08:37.506Z,60.70
2023-04-19T06:11:23.272Z,60.27
2023-04-19T06:14:01.552Z,60.05
2023-04-19T06:16:34.134Z,60.01
2023-04-19T06:19:06.495Z,60.25
2023-04-19T06:21:38.897Z,60.48
2023-04-19T06:24:11.742Z,60.37
2023-04-19T06:26:44.528Z,60.50
2023-04-19T06:29:16.937Z,60.20
2023-04-19T06:31:52.161Z,60.14
2023-04-19T06:34:24.616Z,60.13
2023-04-19T06:36:57.088Z,60.24
2023-04-19T06:39:29.698Z,60.30
2023-04-19T06:42:02.491Z,60.01
2023-04-19T06:44:34.968Z,59.79
2023-04-19T06:47:07.824Z,59.72
2023-04-19T06:49:40.474Z,59.78
2023-04-19T06:52:13.011Z,59.47
2023-04-19T06:54:48.736Z,59.66
2023-04-19T06:57:21.335Z,59.78
2023-04-19T06:59:55.404Z,59.02
2023-04-19T07:02:27.972Z,59.36
2023-04-19T07:05:01.024Z,59.03
2023-04-19T07:07:33.547Z,58.95
2023-04-19T07:10:06.184Z,58.58
2023-04-19T07:12:38.616Z,58.33
2023-04-19T07:15:13.269Z,58.21
2023-04-19T07:17:49.082Z,58.22
2023-04-19T07:20:22.105Z,58.17
2023-04-19T07:22:54.459Z,58.34
2023-04-19T07:25:27.502Z,58.23
2023-04-19T07:27:59.940Z,58.29
2023-04-19T07:30:32.275Z,57.90
2023-04-19T07:33:08.703Z,57.41
2023-04-19T07:35:42.985Z,57.81
2023-04-19T07:38:15.339Z,57.57
2023-04-19T07:40:47.700Z,57.29
2023-04-19T07:43:20.176Z,57.04
2023-04-19T07:45:52.441Z,57.41
2023-04-19T07:48:24.804Z,57.35
2023-04-19T07:50:57.170Z,57.14
2023-04-19T07:53:29.758Z,57.45
2023-04-19T07:56:02.204Z,57.46
2023-04-19T07:58:34.869Z,57.06
2023-04-19T08:01:08.029Z,56.99
2023-04-19T08:03:41.700Z,56.50
2023-04-19T08:06:14.455Z,56.63
2023-04-19T08:08:48.153Z,56.51
2023-04-19T08:11:22.344Z,56.49
2023-04-19T08:14:06.906Z,56.34
2023-04-19T08:19:22.433Z,56.51
2023-04-19T08:21:54.903Z,56.41
2023-04-19T08:24:27.432Z,55.78
2023-04-19T08:27:00.266Z,56.05
2023-04-19T08:29:33.708Z,56.02
2023-04-19T08:32:06.439Z,56.33
2023-04-19T08:34:40.115Z,55.81
2023-04-19T08:37:12.794Z,55.28
2023-04-19T08:39:45.130Z,55.12
2023-04-19T08:42:28.853Z,55.33
2023-04-19T08:45:27.006Z,55.55
2023-04-19T08:48:03.206Z,55.53
2023-04-19T08:50:45.600Z,55.59
2023-04-19T08:53:31.807Z,55.16
2023-04-19T08:56:17.547Z,54.53
2023-04-19T08:59:07.497Z,54.35
2023-04-19T09:01:45.763Z,54.13
2023-04-19T09:04:35.456Z,54.06
2023-04-19T09:07:08.494Z,54.09
2023-04-19T09:09:52.025Z,54.22
2023-04-19T09:12:35.254Z,53.91
2023-04-19T09:15:10.664Z,53.51
2023-04-19T09:17:43.399Z,53.17
2023-04-19T09:20:15.757Z,53.70
2023-04-19T09:23:06.632Z,53.52
2023-04-19T09:25:58.853Z,53.47
2023-04-19T09:28:32.481Z,53.82
2023-04-19T09:31:33.353Z,53.86
2023-04-19T09:34:28.817Z,53.86
2023-04-19T09:37:17.767Z,53.88
2023-04-19T09:40:25.005Z,53.86
2023-04-19T09:43:08.836Z,53.82
2023-04-19T09:45:49.696Z,53.86
2023-04-19T09:48:24.302Z,53.69
2023-04-19T09:51:03.165Z,53.67
2023-04-19T09:53:37.268Z,53.30
2023-04-19T09:56:13.010Z,53.56
2023-04-19T09:58:51.131Z,53.73
2023-04-19T10:01:29.733Z,53.75
2023-04-19T10:04:14.956Z,53.73
2023-04-19T10:07:25.286Z,53.67
2023-04-19T10:09:59.912Z,53.23
2023-04-19T10:13:04.070Z,53.18
2023-04-19T10:15:47.153Z,53.39
2023-04-19T10:18:23.702Z,53.36
2023-04-19T10:21:02.096Z,53.40
2023-04-19T10:23:35.095Z,53.66
2023-04-19T10:26:07.520Z,53.70
2023-04-19T10:28:40.190Z,53.49
2023-04-19T10:31:14.852Z,53.65
2023-04-19T10:33:49.175Z,53.72
2023-04-19T10:36:22.353Z,53.78
2023-04-19T10:38:55.929Z,53.78
2023-04-19T10:41:59.594Z,53.81
2023-04-19T10:44:32.101Z,53.67
2023-04-19T10:47:06.721Z,53.87
2023-04-19T10:49:47.992Z,53.78
2023-04-19T10:52:31.411Z,53.83
2023-04-19T10:55:07.627Z,53.86
2023-04-19T10:58:06.747Z,53.92
2023-04-19T11:00:39.417Z,53.86
2023-04-19T11:03:45.064Z,53.79
2023-04-19T11:06:27.139Z,53.94
2023-04-19T11:09:00.827Z,53.80
2023-04-19T11:11:36.848Z,53.80
2023-04-19T11:14:11.278Z,53.70
2023-04-19T11:16:46.134Z,53.68
2023-04-19T11:19:20.219Z,53.69
2023-04-19T11:21:52.704Z,53.73
2023-04-19T11:24:24.993Z,53.82
2023-04-19T11:26:59.165Z,53.89
2023-04-19T11:29:31.478Z,53.78
2023-04-19T11:32:05.658Z,53.60
2023-04-19T11:34:40.538Z,53.66
2023-04-19T11:37:13.530Z,53.63
2023-04-19T11:39:51.797Z,53.41
2023-04-19T11:42:24.267Z,53.49
2023-04-19T11:44:59.263Z,53.75
2023-04-19T11:47:32.158Z,53.59
2023-04-19T11:50:33.417Z,53.52
2023-04-19T11:53:15.642Z,53.44
2023-04-19T11:55:51.315Z,53.38
2023-04-19T11:58:30.038Z,53.30
2023-04-19T12:01:07.876Z,53.50
2023-04-19T12:03:46.531Z,53.45
2023-04-19T12:06:23.602Z,53.50
2023-04-19T12:08:57.320Z,53.47
2023-04-19T12:11:45.955Z,53.45
2023-04-19T12:14:21.662Z,53.29
2023-04-19T12:17:12.271Z,53.40
2023-04-19T12:19:48.696Z,53.34
2023-04-19T12:22:23.836Z,53.47
2023-04-19T12:24:56.656Z,53.25
2023-04-19T12:27:29.124Z,53.14
2023-04-19T12:30:01.680Z,53.29
2023-04-19T12:32:34.116Z,53.03
2023-04-19T12:35:07.395Z,53.10
2023-04-19T12:37:39.772Z,53.05
2023-04-19T12:40:14.609Z,52.55
2023-04-19T12:42:47.140Z,52.76
2023-04-19T12:45:22.576Z,52.77
2023-04-19T12:47:56.298Z,52.62
2023-04-19T12:50:28.719Z,52.54
2023-04-19T12:53:01.083Z,52.33
2023-04-19T12:55:33.499Z,52.41
2023-04-19T12:58:05.855Z,52.36
2023-04-19T13:00:38.208Z,52.58
2023-04-19T13:03:13.146Z,52.42
2023-04-19T13:05:45.752Z,52.32
2023-04-19T13:08:28.206Z,52.30
2023-04-19T13:11:09.881Z,52.26
2023-04-19T13:13:42.126Z,52.23
2023-04-19T13:16:14.666Z,52.26
2023-04-19T13:18:47.025Z,52.18
2023-04-19T13:21:19.495Z,52.05
2023-04-19T13:23:52.665Z,52.01
2023-04-19T13:26:25.086Z,51.98
2023-04-19T13:28:57.606Z,52.06
2023-04-19T13:31:30.757Z,51.94
2023-04-19T13:34:03.020Z,51.99
2023-04-19T13:36:35.376Z,52.14
2023-04-19T13:39:08.480Z,52.80
2023-04-19T13:41:41.428Z,53.11
2023-04-19T13:44:13.930Z,53.46
2023-04-19T13:46:46.589Z,53.83
2023-04-19T13:49:19.392Z,54.45
2023-04-19T13:51:51.881Z,54.89
2023-04-19T13:54:24.303Z,55.28
2023-04-19T13:56:56.800Z,55.59
2023-04-19T13:59:30.424Z,55.89
2023-04-19T14:02:04.195Z,56.37
2023-04-19T14:04:36.529Z,56.56
2023-04-19T14:07:08.903Z,56.90
2023-04-19T14:09:42.575Z,57.12
2023-04-19T14:12:14.885Z,57.38
2023-04-19T14:14:47.334Z,57.68
2023-04-19T14:17:19.662Z,57.86
2023-04-19T14:19:52.182Z,58.24
2023-04-19T14:22:24.595Z,58.52
2023-04-19T14:24:56.969Z,58.96
2023-04-19T14:27:29.677Z,59.18
2023-04-19T14:30:01.976Z,59.39
2023-04-19T14:32:34.648Z,59.62
2023-04-19T14:35:11.252Z,59.88
2023-04-19T14:37:43.580Z,60.03
2023-04-19T14:40:16.416Z,60.18
2023-04-19T14:42:48.768Z,60.28
2023-04-19T14:45:21.724Z,60.44
2023-04-19T14:47:54.115Z,60.63
2023-04-19T14:50:26.492Z,61.10
2023-04-19T14:52:58.935Z,61.06
2023-04-19T14:55:31.306Z,61.38
2023-04-19T14:58:03.619Z,61.47
2023-04-19T15:00:36.172Z,61.61
2023-04-19T15:03:08.854Z,61.66
2023-04-19T15:05:41.509Z,61.71
2023-04-19T15:08:29.105Z,62.07
2023-04-19T15:11:03.723Z,62.15
2023-04-19T15:13:36.675Z,62.35
2023-04-19T15:16:10.119Z,62.45
2023-04-19T15:18:42.534Z,62.43
2023-04-19T15:21:14.831Z,62.63
2023-04-19T15:23:47.445Z,62.66
2023-04-19T15:26:20.346Z,62.53
2023-04-19T15:28:53.155Z,62.61
2023-04-19T15:31:26.248Z,62.55
2023-04-19T15:33:59.077Z,62.75
2023-04-19T15:36:32.313Z,62.80
2023-04-19T15:39:04.750Z,62.83
2023-04-19T15:41:37.018Z,62.96
2023-04-19T15:44:09.277Z,63.13
2023-04-19T15:46:41.848Z,63.11
2023-04-19T15:49:14.397Z,63.26
2023-04-19T15:51:46.893Z,63.54
2023-04-19T15:54:21.685Z,63.71
2023-04-19T15:56:54.803Z,63.87
2023-04-19T15:59:27.208Z,63.85
2023-04-19T16:01:59.669Z,64.02
2023-04-19T16:04:32.394Z,64.02
2023-04-19T16:07:05.440Z,64.11
2023-04-19T16:09:37.901Z,63.99
2023-04-19T16:12:10.396Z,64.02
2023-04-19T16:14:42.611Z,64.16
2023-04-19T16:17:14.937Z,64.11
2023-04-19T16:19:47.283Z,64.12
2023-04-19T16:22:19.741Z,64.13
2023-04-19T16:24:52.291Z,64.04
2023-04-19T16:27:24.558Z,64.07
2023-04-19T16:29:56.986Z,64.09
2023-04-19T16:32:29.594Z,64.22
2023-04-19T16:35:02.197Z,64.46
2023-04-19T16:37:34.724Z,64.77
2023-04-19T16:40:10.377Z,64.76
2023-04-19T16:42:43.109Z,64.90
2023-04-19T16:45:16.341Z,64.95
2023-04-19T16:47:48.793Z,65.07
2023-04-19T16:50:21.698Z,64.94
2023-04-19T16:52:54.057Z,65.01
2023-04-19T16:55:26.445Z,65.16
2023-04-19T16:57:58.721Z,65.36
2023-04-19T17:00:31.013Z,65.37
2023-04-19T17:03:03.426Z,65.34
2023-04-19T17:05:36.156Z,65.47
2023-04-19T17:08:10.217Z,65.47
2023-04-19T17:10:42.569Z,65.39
2023-04-19T17:13:14.925Z,65.36
2023-04-19T17:15:47.778Z,65.42
2023-04-19T17:18:20.186Z,65.51
2023-04-19T17:20:52.596Z,65.63
2023-04-19T17:23:25.317Z,65.65
2023-04-19T17:25:57.546Z,65.67
2023-04-19T17:28:29.866Z,65.75
2023-04-19T17:31:02.205Z,65.86
2023-04-19T17:33:34.658Z,65.84
2023-04-19T17:36:08.247Z,66.05
2023-04-19T17:38:40.479Z,66.04
2023-04-19T17:41:16.477Z,65.87
2023-04-19T17:43:49.323Z,65.85
2023-04-19T17:46:22.547Z,65.93
2023-04-19T17:48:55.775Z,65.86
2023-04-19T17:51:28.214Z,65.91
2023-04-19T17:54:00.639Z,65.86
2023-04-19T17:56:33.379Z,66.06
2023-04-19T17:59:05.722Z,66.19
2023-04-19T18:01:38.284Z,66.27
2023-04-19T18:04:14.234Z,66.07
2023-04-19T18:06:46.990Z,66.32
2023-04-19T18:09:19.797Z,66.24
2023-04-19T18:11:52.256Z,66.24
2023-04-19T18:14:24.622Z,66.27
2023-04-19T18:16:57.007Z,66.31
2023-04-19T18:19:29.433Z,66.40
2023-04-19T18:22:02.475Z,66.50
2023-04-19T18:24:35.616Z,66.50
2023-04-19T18:27:07.901Z,66.43
2023-04-19T18:29:40.319Z,66.40
2023-04-19T18:32:12.891Z,66.47
2023-04-19T18:34:45.464Z,66.64
2023-04-19T18:37:18.804Z,66.54
2023-04-19T18:39:51.148Z,66.73
2023-04-19T18:42:24.577Z,66.80
2023-04-19T18:44:56.959Z,66.83
2023-04-19T18:47:29.949Z,66.92
2023-04-19T18:50:05.085Z,66.95
2023-04-19T18:52:38.816Z,67.04
2023-04-19T18:55:13.877Z,67.25
2023-04-19T18:57:46.116Z,67.16
2023-04-19T19:00:21.338Z,67.16
2023-04-19T19:02:53.889Z,67.23
2023-04-19T19:05:26.765Z,67.16
2023-04-19T19:07:59.460Z,67.32
2023-04-19T19:11:00.316Z,67.32
2023-04-19T19:13:24.156Z,67.50
2023-04-19T19:15:56.525Z,67.59
2023-04-19T19:18:29.584Z,67.57
2023-04-19T19:21:03.314Z,67.70
2023-04-19T19:23:41.839Z,67.74
2023-04-19T19:26:15.770Z,67.83
2023-04-19T19:28:48.177Z,67.94
2023-04-19T19:31:20.561Z,67.78
2023-04-19T19:34:10.221Z,67.90
2023-04-19T19:36:46.093Z,67.98
2023-04-19T19:39:18.675Z,68.02
2023-04-19T19:42:05.354Z,68.10
2023-04-19T19:44:39.068Z,68.03
2023-04-19T19:47:11.459Z,68.21
2023-04-19T19:50:08.848Z,68.15
2023-04-19T19:52:36.479Z,68.15
2023-04-19T19:55:12.510Z,68.23
2023-04-19T20:02:56.906Z,68.20
2023-04-19T20:05:30.018Z,68.27
2023-04-19T20:08:12.003Z,68.07
2023-04-19T20:10:45.291Z,68.12
2023-04-19T20:13:17.633Z,68.30
2023-04-19T20:15:50.016Z,68.35
2023-04-19T20:18:22.397Z,68.40
2023-04-19T20:20:54.814Z,68.42
2023-04-19T20:23:27.247Z,68.46
2023-04-19T20:25:59.932Z,68.44
2023-04-19T20:28:32.201Z,68.53
2023-04-19T20:31:04.517Z,68.49
2023-04-19T20:33:36.897Z,68.50
2023-04-19T20:36:09.632Z,68.57
2023-04-19T20:38:42.039Z,68.59
2023-04-19T20:41:14.470Z,68.54
2023-04-19T20:43:46.748Z,68.53
2023-04-19T20:46:19.238Z,68.48
2023-04-19T20:48:51.706Z,68.41
2023-04-19T20:51:24.131Z,68.58
2023-04-19T20:53:56.719Z,68.66
2023-04-19T20:56:29.016Z,68.75
2023-04-19T20:59:01.287Z,68.81
2023-04-19T21:01:34.073Z,68.84
2023-04-19T21:04:08.598Z,68.96
2023-04-19T21:06:41.420Z,68.87
2023-04-19T21:09:14.416Z,69.07
2023-04-19T21:11:46.865Z,68.96
2023-04-19T21:14:19.534Z,69.04
2023-04-19T21:16:51.911Z,69.16
2023-04-19T21:19:24.151Z,69.02
2023-04-19T21:21:56.585Z,69.23
2023-04-19T21:24:29.277Z,69.18
2023-04-19T21:27:01.624Z,69.31
2023-04-19T21:29:34.249Z,69.35
2023-04-19T21:32:06.825Z,69.23
2023-04-19T21:34:39.346Z,69.14
2023-04-19T21:37:11.643Z,69.10
2023-04-19T21:39:43.912Z,69.21
2023-04-19T21:42:16.408Z,69.37
2023-04-19T21:44:48.770Z,69.29
2023-04-19T21:47:21.412Z,69.06
2023-04-19T21:49:54.518Z,69.19
2023-04-19T21:52:26.980Z,69.22
2023-04-19T21:54:59.276Z,69.27
2023-04-19T21:57:31.648Z,69.40
2023-04-19T22:00:04.849Z,69.45
2023-04-19T22:02:37.297Z,69.62
2023-04-19T22:05:10.839Z,69.50
2023-04-19T22:07:43.436Z,69.46
2023-04-19T22:10:16.703Z,69.58
2023-04-19T22:12:57.885Z,69.76
2023-04-19T22:15:32.124Z,69.72
2023-04-19T22:18:05.448Z,69.82
2023-04-19T22:20:38.590Z,69.83
2023-04-19T22:23:11.026Z,69.81
2023-04-19T22:25:43.419Z,69.93
2023-04-19T22:28:15.937Z,69.87
2023-04-19T22:30:48.317Z,69.85
2023-04-19T22:33:22.118Z,69.89
2023-04-19T22:35:54.490Z,69.91
2023-04-19T22:38:26.894Z,70.09
2023-04-19T22:40:59.323Z,70.07
2023-04-19T22:43:31.665Z,69.98
2023-04-19T22:46:04.130Z,70.00
2023-04-19T22:48:36.616Z,70.10
2023-04-19T22:51:09.554Z,70.19
2023-04-19T22:53:41.940Z,70.11
2023-04-19T22:56:14.375Z,70.10
2023-04-19T22:58:46.605Z,70.06
2023-04-19T23:01:18.849Z,70.16
2023-04-19T23:03:51.220Z,70.11
2023-04-19T23:06:23.610Z,70.05
2023-04-19T23:08:56.371Z,70.20
2023-04-19T23:11:30.007Z,70.26
2023-04-19T23:14:02.438Z,70.16
2023-04-19T23:16:34.739Z,70.38
2023-04-19T23:19:07.746Z,70.09
2023-04-19T23:21:40.144Z,70.06
2023-04-19T23:24:12.645Z,70.25
2023-04-19T23:26:45.053Z,70.07
2023-04-19T23:29:17.606Z,70.15
2023-04-19T23:31:50.233Z,70.25
2023-04-19T23:34:22.785Z,70.28
2023-04-19T23:36:55.060Z,70.48
2023-04-19T23:39:27.436Z,70.48
2023-04-19T23:41:59.816Z,70.43
2023-04-19T23:44:32.190Z,70.43
2023-04-19T23:47:04.489Z,70.56
2023-04-19T23:49:36.989Z,70.66
2023-04-19T23:52:09.433Z,70.55
2023-04-19T23:54:42.087Z,70.52
2023-04-19T23:57:14.340Z,70.66
2023-04-19T23:59:46.646Z,70.72
